createdAt,value
2023-03-21T00:02:25.072Z,6.63
2023-03-21T00:05:15.728Z,6.00
2023-03-21T00:08:03.461Z,6.63
2023-03-21T00:10:58.340Z,6.75
2023-03-21T00:13:45.263Z,6.47
2023-03-21T00:16:35.806Z,5.97
2023-03-21T00:19:26.289Z,6.82
2023-03-21T00:22:14.173Z,6.85
2023-03-21T00:25:01.383Z,7.32
2023-03-21T00:28:05.212Z,7.97
2023-03-21T00:30:58.920Z,7.35
2023-03-21T00:33:45.955Z,7.55
2023-03-21T00:36:32.849Z,8.30
2023-03-21T00:39:19.815Z,7.30
2023-03-21T00:42:06.678Z,7.47
2023-03-21T00:44:53.530Z,7.72
2023-03-21T00:47:40.492Z,6.68
2023-03-21T00:50:27.598Z,8.02
2023-03-21T00:53:15.996Z,7.28
2023-03-21T00:56:02.878Z,7.85
2023-03-21T00:58:51.256Z,7.50
2023-03-21T01:01:38.432Z,7.60
2023-03-21T01:04:26.966Z,7.32
2023-03-21T01:07:13.932Z,6.40
2023-03-21T01:10:00.819Z,7.65
2023-03-21T01:12:47.646Z,9.05
2023-03-21T01:15:35.506Z,7.25
2023-03-21T01:18:25.927Z,6.80
2023-03-21T01:21:14.258Z,8.38
2023-03-21T01:24:01.768Z,8.02
2023-03-21T01:26:48.692Z,7.70
2023-03-21T01:29:35.544Z,7.88
2023-03-21T01:32:22.374Z,7.00
2023-03-21T01:35:09.416Z,7.25
2023-03-21T01:37:56.853Z,7.53
2023-03-21T01:40:46.499Z,8.32
2023-03-21T01:43:35.868Z,8.43
2023-03-21T01:46:32.293Z,8.38
2023-03-21T01:49:46.458Z,8.23
2023-03-21T01:52:38.696Z,7.53
2023-03-21T01:55:26.115Z,6.80
2023-03-21T01:58:14.106Z,8.00
2023-03-21T02:01:01.217Z,7.03
2023-03-21T02:03:51.380Z,7.68
2023-03-21T02:06:46.868Z,6.57
2023-03-21T02:09:35.955Z,7.95
2023-03-21T02:15:10.253Z,7.90
2023-03-21T02:18:03.346Z,7.75
2023-03-21T02:21:05.583Z,7.15
2023-03-21T02:24:20.188Z,8.40
2023-03-21T02:27:18.638Z,8.02
2023-03-21T02:30:51.795Z,8.20
2023-03-21T02:34:09.743Z,6.15
2023-03-21T02:37:03.243Z,7.65
2023-03-21T02:40:09.336Z,8.25
2023-03-21T02:43:23.589Z,7.28
2023-03-21T02:46:18.005Z,7.60
2023-03-21T02:49:20.248Z,7.93
2023-03-21T02:52:15.522Z,7.25
2023-03-21T02:55:22.470Z,7.55
2023-03-21T02:58:19.060Z,6.93
2023-03-21T03:01:09.042Z,7.50
2023-03-21T03:03:56.487Z,6.95
2023-03-21T03:07:03.815Z,8.57
2023-03-21T03:10:14.566Z,8.18
2023-03-21T03:13:42.737Z,8.02
2023-03-21T03:16:39.817Z,7.35
2023-03-21T03:19:31.218Z,6.75
2023-03-21T03:22:29.690Z,7.30
2023-03-21T03:25:35.761Z,7.68
2023-03-21T03:28:31.959Z,7.28
2023-03-21T03:31:27.121Z,7.93
2023-03-21T03:34:17.004Z,8.88
2023-03-21T03:37:08.246Z,7.88
2023-03-21T03:40:19.014Z,7.15
2023-03-21T03:43:11.493Z,7.82
2023-03-21T03:46:07.245Z,8.38
2023-03-21T03:49:01.856Z,7.53
2023-03-21T03:52:06.499Z,7.43
2023-03-21T03:54:53.876Z,7.22
2023-03-21T03:57:40.946Z,8.50
2023-03-21T04:00:28.224Z,7.30
2023-03-21T04:03:16.048Z,7.70
2023-03-21T04:06:04.020Z,8.25
2023-03-21T04:08:51.046Z,7.55
2023-03-21T04:11:38.088Z,7.80
2023-03-21T04:14:35.519Z,8.02
2023-03-21T04:17:29.113Z,7.43
2023-03-21T04:20:23.783Z,7.35
2023-03-21T04:23:20.993Z,7.75
2023-03-21T04:26:08.080Z,7.53
2023-03-21T04:28:54.970Z,7.93
2023-03-21T04:31:41.953Z,8.13
2023-03-21T04:34:29.026Z,8.35
2023-03-21T04:37:17.684Z,8.00
2023-03-21T04:40:06.974Z,8.18
2023-03-21T04:42:54.057Z,8.73
2023-03-21T04:45:40.988Z,8.10
2023-03-21T04:48:27.935Z,8.02
2023-03-21T04:51:16.076Z,7.95
2023-03-21T04:54:03.222Z,8.35
2023-03-21T04:56:52.057Z,8.40
2023-03-21T04:59:39.014Z,8.82
2023-03-21T05:02:25.921Z,8.93
2023-03-21T05:05:13.587Z,8.27
2023-03-21T05:08:00.633Z,7.68
2023-03-21T05:10:47.754Z,8.18
2023-03-21T05:13:34.586Z,7.18
2023-03-21T05:16:25.520Z,8.20
2023-03-21T05:19:13.982Z,8.20
2023-03-21T05:22:10.130Z,7.90
2023-03-21T05:24:57.013Z,7.93
2023-03-21T05:27:45.395Z,7.70
2023-03-21T05:30:32.658Z,8.60
2023-03-21T05:33:19.495Z,8.55
2023-03-21T05:36:06.848Z,7.60
2023-03-21T05:38:53.784Z,8.38
2023-03-21T05:41:40.744Z,7.25
2023-03-21T05:44:27.566Z,8.48
2023-03-21T05:47:17.182Z,9.05
2023-03-21T05:50:04.551Z,7.90
2023-03-21T05:52:51.384Z,7.53
2023-03-21T05:55:39.709Z,8.23
2023-03-21T05:58:26.691Z,8.10
2023-03-21T06:01:13.614Z,8.18
2023-03-21T06:04:00.480Z,8.05
2023-03-21T06:06:47.498Z,8.82
2023-03-21T06:09:34.413Z,8.80
2023-03-21T06:12:21.244Z,7.22
2023-03-21T06:15:09.026Z,7.20
2023-03-21T06:17:55.947Z,8.20
2023-03-21T06:20:42.853Z,7.68
2023-03-21T06:23:30.085Z,8.68
2023-03-21T06:26:19.736Z,10.68
2023-03-21T06:29:06.580Z,8.50
2023-03-21T06:31:53.422Z,8.70
2023-03-21T06:34:40.506Z,8.73
2023-03-21T06:37:27.521Z,8.25
2023-03-21T06:40:14.748Z,10.48
2023-03-21T06:43:01.607Z,9.18
2023-03-21T06:45:48.494Z,9.45
2023-03-21T06:48:35.382Z,10.10
2023-03-21T06:51:22.225Z,9.63
2023-03-21T06:54:09.347Z,9.55
2023-03-21T06:56:56.715Z,11.75
2023-03-21T06:59:43.595Z,9.75
2023-03-21T07:02:30.858Z,8.82
2023-03-21T07:05:17.804Z,8.77
2023-03-21T07:08:05.718Z,9.20
2023-03-21T07:10:56.233Z,9.88
2023-03-21T07:13:43.204Z,10.00
2023-03-21T07:16:30.268Z,8.55
2023-03-21T07:19:17.175Z,9.07
2023-03-21T07:22:04.884Z,7.82
2023-03-21T07:25:03.974Z,9.57
2023-03-21T07:27:51.393Z,8.52
2023-03-21T07:30:38.289Z,9.10
2023-03-21T07:33:25.938Z,8.50
2023-03-21T07:36:15.529Z,9.43
2023-03-21T07:39:02.570Z,9.73
2023-03-21T07:41:49.418Z,8.93
2023-03-21T07:44:37.106Z,10.07
2023-03-21T07:47:24.004Z,8.32
2023-03-21T07:50:11.019Z,9.00
2023-03-21T07:52:57.881Z,9.18
2023-03-21T07:55:44.731Z,8.50
2023-03-21T07:58:34.182Z,8.35
2023-03-21T08:01:21.798Z,8.30
2023-03-21T08:04:08.685Z,8.70
2023-03-21T08:06:55.685Z,9.07
2023-03-21T08:09:45.638Z,8.25
2023-03-21T08:12:32.510Z,8.68
2023-03-21T08:15:19.944Z,8.57
2023-03-21T08:18:06.834Z,7.75
2023-03-21T08:20:54.907Z,8.63
2023-03-21T08:23:41.784Z,7.90
2023-03-21T08:26:28.662Z,8.23
2023-03-21T08:29:15.531Z,7.78
2023-03-21T08:32:02.351Z,8.63
2023-03-21T08:34:49.195Z,8.20
2023-03-21T08:37:40.178Z,8.15
2023-03-21T08:40:27.204Z,7.85
2023-03-21T08:43:14.896Z,9.60
2023-03-21T08:46:04.233Z,8.27
2023-03-21T08:48:52.749Z,7.53
2023-03-21T08:51:41.191Z,8.93
2023-03-21T08:54:28.183Z,8.40
2023-03-21T08:57:15.088Z,8.18
2023-03-21T09:00:01.965Z,8.52
2023-03-21T09:02:51.492Z,7.82
2023-03-21T09:05:38.596Z,9.65
2023-03-21T09:08:25.651Z,9.13
2023-03-21T09:11:12.509Z,7.45
2023-03-21T09:13:59.378Z,8.85
2023-03-21T09:16:46.268Z,8.18
2023-03-21T09:19:34.853Z,8.10
2023-03-21T09:22:23.505Z,6.78
2023-03-21T09:25:11.556Z,7.72
2023-03-21T09:27:59.533Z,6.67
2023-03-21T09:30:46.434Z,5.32
2023-03-21T09:33:35.235Z,5.95
2023-03-21T09:36:25.015Z,7.68
2023-03-21T09:39:12.748Z,7.85
2023-03-21T09:42:13.191Z,6.60
2023-03-21T09:45:21.765Z,6.60
2023-03-21T09:48:31.241Z,6.00
2023-03-21T09:51:18.992Z,3.83
2023-03-21T09:54:20.930Z,5.93
2023-03-21T09:57:19.672Z,5.22
2023-03-21T10:00:16.441Z,3.28
2023-03-21T10:03:07.426Z,5.03
2023-03-21T10:05:58.639Z,4.82
2023-03-21T10:08:47.093Z,4.25
2023-03-21T10:11:43.597Z,5.05
2023-03-21T10:14:36.615Z,5.55
2023-03-21T10:18:22.415Z,3.60
2023-03-21T10:21:31.876Z,5.60
2023-03-21T10:24:26.567Z,3.40
2023-03-21T10:27:14.614Z,4.07
2023-03-21T10:30:02.325Z,4.97
2023-03-21T10:32:49.315Z,2.67
2023-03-21T10:35:37.517Z,3.42
2023-03-21T10:38:26.411Z,4.20
2023-03-21T10:41:13.311Z,4.55
2023-03-21T10:44:11.756Z,3.90
2023-03-21T10:47:06.739Z,4.72
2023-03-21T10:50:10.491Z,4.25
2023-03-21T10:53:00.785Z,4.22
2023-03-21T10:55:59.782Z,3.50
2023-03-21T11:01:41.959Z,3.45
2023-03-21T11:04:29.683Z,3.20
2023-03-21T11:07:19.258Z,2.75
2023-03-21T11:10:20.050Z,3.22
2023-03-21T11:13:24.157Z,2.75
2023-03-21T11:16:18.497Z,4.55
2023-03-21T11:19:20.641Z,5.47
2023-03-21T11:22:08.238Z,4.10
2023-03-21T11:25:01.189Z,4.40
2023-03-21T11:27:53.231Z,3.20
2023-03-21T11:30:56.494Z,4.93
2023-03-21T11:34:06.496Z,3.55
2023-03-21T11:36:58.331Z,3.45
2023-03-21T11:39:45.659Z,4.05
2023-03-21T11:42:39.968Z,4.82
2023-03-21T11:45:33.022Z,3.63
2023-03-21T11:48:19.919Z,3.40
2023-03-21T11:52:13.345Z,3.78
2023-03-21T11:55:18.141Z,2.10
2023-03-21T11:58:30.756Z,4.93
2023-03-21T12:01:25.111Z,4.13
2023-03-21T12:04:27.370Z,3.95
2023-03-21T12:07:39.359Z,4.50
2023-03-21T12:10:51.067Z,4.35
2023-03-21T12:13:48.447Z,3.42
2023-03-21T12:16:49.603Z,3.92
2023-03-21T12:19:57.908Z,5.20
2023-03-21T12:23:07.542Z,4.22
2023-03-21T12:26:03.057Z,2.95
2023-03-21T12:29:37.507Z,4.45
2023-03-21T12:32:51.747Z,3.60
2023-03-21T12:36:00.785Z,3.80
2023-03-21T12:39:04.246Z,4.30
2023-03-21T12:42:28.354Z,3.85
2023-03-21T12:45:19.406Z,2.15
2023-03-21T12:48:21.618Z,2.85
2023-03-21T12:51:13.050Z,4.47
2023-03-21T12:54:07.690Z,2.88
2023-03-21T12:57:02.906Z,2.40
2023-03-21T12:59:49.659Z,3.88
2023-03-21T13:02:41.575Z,3.42
2023-03-21T13:05:49.546Z,3.42
2023-03-21T13:08:55.188Z,3.45
2023-03-21T13:11:42.577Z,3.85
2023-03-21T13:14:34.705Z,2.45
2023-03-21T13:17:32.829Z,3.45
2023-03-21T13:20:33.371Z,2.78
2023-03-21T13:23:22.636Z,3.30
2023-03-21T13:26:12.626Z,2.50
2023-03-21T13:29:00.608Z,2.13
2023-03-21T13:31:54.619Z,2.53
2023-03-21T13:34:44.647Z,3.33
2023-03-21T13:37:34.808Z,3.47
2023-03-21T13:40:49.564Z,2.88
2023-03-21T13:43:52.671Z,2.28
2023-03-21T13:46:54.852Z,2.42
2023-03-21T13:49:41.960Z,3.03
2023-03-21T13:52:28.930Z,5.68
2023-03-21T13:55:20.004Z,3.75
2023-03-21T13:58:24.436Z,2.35
2023-03-21T14:01:17.425Z,3.30
2023-03-21T14:04:14.049Z,3.40
2023-03-21T14:07:31.248Z,4.75
2023-03-21T14:10:21.109Z,4.95
2023-03-21T14:13:10.827Z,4.05
2023-03-21T14:16:02.465Z,5.35
2023-03-21T14:18:56.422Z,4.88
2023-03-21T14:21:50.326Z,5.47
2023-03-21T14:24:37.379Z,4.47
2023-03-21T14:27:26.195Z,3.97
2023-03-21T14:33:20.348Z,2.80
2023-03-21T14:36:11.749Z,5.32
2023-03-21T14:39:15.946Z,4.05
2023-03-21T14:42:02.678Z,3.28
2023-03-21T14:44:55.892Z,3.05
2023-03-21T14:48:14.326Z,4.65
2023-03-21T14:51:04.060Z,3.22
2023-03-21T14:53:50.921Z,4.18
2023-03-21T14:56:38.802Z,2.97
2023-03-21T14:59:27.372Z,3.80
2023-03-21T15:02:26.216Z,2.88
2023-03-21T15:05:22.617Z,2.55
2023-03-21T15:08:21.152Z,2.83
2023-03-21T15:11:12.574Z,3.63
2023-03-21T15:14:07.261Z,4.15
2023-03-21T15:16:54.691Z,2.83
2023-03-21T15:19:43.602Z,2.50
2023-03-21T15:25:22.929Z,3.47
2023-03-21T15:28:14.247Z,3.90
2023-03-21T15:31:01.547Z,4.32
2023-03-21T15:33:49.492Z,4.03
2023-03-21T15:36:42.417Z,3.07
2023-03-21T15:39:29.578Z,4.22
2023-03-21T15:42:27.459Z,3.28
2023-03-21T15:45:24.905Z,4.40
2023-03-21T15:48:14.314Z,4.30
2023-03-21T15:51:06.885Z,3.38
2023-03-21T15:53:56.985Z,4.63
2023-03-21T15:56:46.149Z,3.15
2023-03-21T15:59:40.336Z,3.53
2023-03-21T16:02:30.050Z,2.63
2023-03-21T16:05:28.477Z,3.55
2023-03-21T16:08:27.243Z,3.25
2023-03-21T16:14:03.224Z,3.95
2023-03-21T16:16:50.807Z,4.15
2023-03-21T16:19:37.802Z,6.18
2023-03-21T16:22:24.756Z,4.95
2023-03-21T16:25:11.692Z,3.78
2023-03-21T16:27:58.805Z,4.05
2023-03-21T16:30:45.694Z,3.97
2023-03-21T16:33:32.507Z,4.22
2023-03-21T16:36:21.615Z,4.45
2023-03-21T16:39:20.489Z,4.38
2023-03-21T16:44:54.151Z,3.03
2023-03-21T16:47:41.117Z,2.75
2023-03-21T16:50:41.085Z,3.70
2023-03-21T16:53:28.268Z,3.58
2023-03-21T16:56:18.463Z,3.55
2023-03-21T16:59:06.003Z,5.75
2023-03-21T17:01:52.903Z,2.72
2023-03-21T17:04:39.833Z,2.35
2023-03-21T17:07:26.682Z,3.88
2023-03-21T17:10:33.793Z,4.65
2023-03-21T17:13:20.640Z,4.20
2023-03-21T17:16:07.734Z,4.85
2023-03-21T17:18:54.897Z,5.20
2023-03-21T17:21:42.279Z,4.35
2023-03-21T17:24:29.244Z,4.10
2023-03-21T17:27:18.279Z,4.20
2023-03-21T17:30:13.016Z,3.15
2023-03-21T17:33:00.010Z,3.88
2023-03-21T17:35:47.220Z,4.45
2023-03-21T17:38:34.072Z,4.63
2023-03-21T17:41:21.088Z,5.05
2023-03-21T17:44:07.977Z,5.10
2023-03-21T17:46:54.893Z,3.95
2023-03-21T17:49:42.186Z,5.22
2023-03-21T17:52:29.203Z,5.25
2023-03-21T17:55:21.169Z,8.57
2023-03-21T17:58:08.203Z,6.05
2023-03-21T18:00:55.060Z,7.10
2023-03-21T18:03:41.970Z,6.53
2023-03-21T18:06:28.896Z,5.22
2023-03-21T18:09:20.195Z,4.40
2023-03-21T18:12:08.450Z,5.05
2023-03-21T18:14:55.918Z,4.88
2023-03-21T18:17:42.856Z,4.43
2023-03-21T18:20:50.463Z,4.88
2023-03-21T18:23:38.821Z,4.45
2023-03-21T18:26:25.986Z,4.32
2023-03-21T18:32:23.679Z,5.57
2023-03-21T18:35:12.860Z,5.15
2023-03-21T18:37:59.976Z,6.85
2023-03-21T18:40:47.060Z,3.92
2023-03-21T18:44:02.919Z,5.40
2023-03-21T18:46:46.974Z,4.25
2023-03-21T18:52:42.405Z,4.38
2023-03-21T18:55:44.355Z,5.20
2023-03-21T18:58:31.821Z,4.00
2023-03-21T19:01:18.775Z,4.47
2023-03-21T19:04:20.738Z,4.82
2023-03-21T19:07:09.817Z,3.80
2023-03-21T19:10:16.413Z,4.30
2023-03-21T19:13:06.638Z,3.92
2023-03-21T19:15:54.136Z,2.65
2023-03-21T19:18:57.488Z,4.25
2023-03-21T19:21:48.180Z,3.25
2023-03-21T19:24:35.000Z,4.25
2023-03-21T19:27:21.856Z,4.10
2023-03-21T19:30:15.712Z,3.92
2023-03-21T19:33:02.817Z,4.22
2023-03-21T19:36:06.135Z,3.08
2023-03-21T19:38:57.619Z,3.28
2023-03-21T19:41:44.566Z,4.03
2023-03-21T19:44:32.749Z,3.42
2023-03-21T19:47:20.744Z,3.92
2023-03-21T19:53:15.696Z,3.97
2023-03-21T19:56:07.520Z,5.38
2023-03-21T19:58:57.871Z,4.88
2023-03-21T20:01:44.833Z,3.90
2023-03-21T20:04:31.698Z,3.22
2023-03-21T20:07:18.503Z,3.88
2023-03-21T20:10:09.484Z,5.15
2023-03-21T20:12:56.651Z,3.35
2023-03-21T20:15:48.100Z,4.15
2023-03-21T20:18:36.804Z,4.30
2023-03-21T20:21:25.839Z,5.38
2023-03-21T20:24:13.034Z,4.05
2023-03-21T20:26:59.943Z,4.53
2023-03-21T20:32:54.573Z,4.88
2023-03-21T20:38:48.625Z,3.50
2023-03-21T20:41:35.455Z,4.78
2023-03-21T20:47:29.175Z,3.17
2023-03-21T20:50:22.090Z,4.85
2023-03-21T20:53:09.670Z,4.28
2023-03-21T20:55:57.613Z,3.38
2023-03-21T20:59:01.970Z,4.53
2023-03-21T21:01:52.049Z,4.00
2023-03-21T21:04:55.730Z,3.75
2023-03-21T21:07:48.832Z,5.63
2023-03-21T21:11:03.958Z,3.80
2023-03-21T21:13:45.501Z,4.95
2023-03-21T21:16:32.868Z,4.93
2023-03-21T21:19:21.705Z,4.93
2023-03-21T21:24:55.412Z,5.35
2023-03-21T21:27:42.676Z,4.75
2023-03-21T21:30:31.619Z,4.85
2023-03-21T21:36:10.274Z,3.15
2023-03-21T21:38:57.157Z,4.05
2023-03-21T21:41:44.072Z,4.75
2023-03-21T21:44:31.263Z,4.38
2023-03-21T21:47:18.099Z,5.38
2023-03-21T21:50:05.676Z,5.13
2023-03-21T21:52:52.750Z,7.88
2023-03-21T21:55:40.163Z,3.95
2023-03-21T21:58:26.996Z,3.17
2023-03-21T22:01:13.911Z,4.93
2023-03-21T22:04:07.967Z,4.90
2023-03-21T22:06:55.478Z,5.55
2023-03-21T22:09:43.210Z,4.95
2023-03-21T22:12:30.335Z,5.22
2023-03-21T22:15:18.232Z,6.55
2023-03-21T22:18:05.158Z,5.30
2023-03-21T22:20:52.243Z,6.20
2023-03-21T22:23:41.315Z,6.13
2023-03-21T22:26:28.225Z,5.80
2023-03-21T22:29:15.600Z,6.30
2023-03-21T22:32:02.500Z,5.55
2023-03-21T22:34:49.475Z,4.97
2023-03-21T22:37:38.261Z,5.85
2023-03-21T22:40:25.077Z,5.93
2023-03-21T22:43:11.909Z,6.05
2023-03-21T22:45:58.800Z,7.32
2023-03-21T22:48:45.863Z,6.22
2023-03-21T22:51:33.064Z,4.25
2023-03-21T22:54:20.336Z,5.88
2023-03-21T22:57:08.605Z,7.15
2023-03-21T22:59:55.619Z,5.95
2023-03-21T23:02:42.552Z,6.80
2023-03-21T23:05:29.577Z,6.40
2023-03-21T23:08:16.466Z,6.32
2023-03-21T23:11:07.612Z,6.65
2023-03-21T23:14:07.301Z,6.35
2023-03-21T23:16:54.812Z,6.57
2023-03-21T23:19:41.736Z,6.57
2023-03-21T23:22:32.829Z,6.80
2023-03-21T23:25:22.023Z,7.00
2023-03-21T23:28:08.890Z,5.90
2023-03-21T23:30:55.994Z,6.63
2023-03-21T23:33:43.669Z,6.85
2023-03-21T23:36:30.686Z,8.55
2023-03-21T23:39:18.667Z,7.47
2023-03-21T23:42:06.558Z,7.27
2023-03-21T23:44:53.404Z,8.00
2023-03-21T23:47:40.356Z,9.02
2023-03-21T23:50:27.314Z,7.53
2023-03-21T23:53:14.180Z,7.28
2023-03-21T23:56:01.774Z,6.63
2023-03-21T23:58:49.969Z,6.70
